Fuzhou, China
Current Conditions -  °F | °C
As of 2:00 PM on Wednesday 28 Jan 2015 (Local Time) from ZSFZ Reporting Station
Overcast Overcast  
Wind Chill: 42°   Ceiling: 1400
Heat Index: 48°   Visibility: 6mi
Dew Point: 41°   Wind: 16mph
Humidity: 76%   Direction: 30°NNE
Pressure: 30.18"   Gusts: NA
Location:  26.08°N, 119.3°E
Report Text: ZSFZ 280600Z 03007MPS 9999 OVC014 09/05 Q1022 BECMG TL0630BKN015
Loading
Personal Weather Stations






























Interactive Weather Map New forecast layout! Learn more

10-Day Weather Forecast

Advertisements
Track Severe Weather on mobile